sensor_id;sensor_type;location;lat;lon;timestamp;P1;durP1;ratioP1;P2;durP2;ratioP2
12878;SDS011;20617;49.476;10.986;2023-01-29T00:01:44;8.02;;;6.00;;
12878;SDS011;20617;49.476;10.986;2023-01-29T00:03:49;10.50;;;6.45;;
12878;SDS011;20617;49.476;10.986;2023-01-29T00:05:54;10.25;;;6.05;;
12878;SDS011;20617;49.476;10.986;2023-01-29T00:08:02;7.90;;;6.32;;
12878;SDS011;20617;49.476;10.986;2023-01-29T00:10:07;7.93;;;5.95;;
12878;SDS011;20617;49.476;10.986;2023-01-29T00:12:14;6.90;;;6.00;;
12878;SDS011;20617;49.476;10.986;2023-01-29T00:14:19;9.23;;;6.03;;
12878;SDS011;20617;49.476;10.986;2023-01-29T00:16:23;8.02;;;5.45;;
12878;SDS011;20617;49.476;10.986;2023-01-29T00:18:29;7.75;;;5.88;;
12878;SDS011;20617;49.476;10.986;2023-01-29T00:20:34;8.50;;;5.35;;
12878;SDS011;20617;49.476;10.986;2023-01-29T00:22:39;7.55;;;5.63;;
12878;SDS011;20617;49.476;10.986;2023-01-29T00:24:46;9.43;;;5.50;;
12878;SDS011;20617;49.476;10.986;2023-01-29T00:26:51;7.15;;;5.47;;
12878;SDS011;20617;49.476;10.986;2023-01-29T00:28:56;7.07;;;5.47;;
12878;SDS011;20617;49.476;10.986;2023-01-29T00:31:06;9.85;;;6.00;;
12878;SDS011;20617;49.476;10.986;2023-01-29T00:33:12;8.63;;;6.03;;
12878;SDS011;20617;49.476;10.986;2023-01-29T00:35:17;7.50;;;5.60;;
12878;SDS011;20617;49.476;10.986;2023-01-29T00:37:22;10.05;;;6.60;;
12878;SDS011;20617;49.476;10.986;2023-01-29T00:39:27;8.80;;;5.93;;
12878;SDS011;20617;49.476;10.986;2023-01-29T00:41:51;9.80;;;5.63;;
12878;SDS011;20617;49.476;10.986;2023-01-29T00:44:09;7.55;;;5.63;;
12878;SDS011;20617;49.476;10.986;2023-01-29T00:46:26;11.32;;;6.05;;
12878;SDS011;20617;49.476;10.986;2023-01-29T00:48:31;7.50;;;5.65;;
12878;SDS011;20617;49.476;10.986;2023-01-29T00:50:37;7.50;;;5.72;;
12878;SDS011;20617;49.476;10.986;2023-01-29T00:52:42;11.30;;;6.20;;
12878;SDS011;20617;49.476;10.986;2023-01-29T00:54:49;9.52;;;5.50;;
12878;SDS011;20617;49.476;10.986;2023-01-29T00:56:57;7.85;;;5.75;;
12878;SDS011;20617;49.476;10.986;2023-01-29T00:59:02;10.30;;;5.85;;
12878;SDS011;20617;49.476;10.986;2023-01-29T01:01:07;7.30;;;5.93;;
12878;SDS011;20617;49.476;10.986;2023-01-29T01:03:12;7.90;;;6.00;;
12878;SDS011;20617;49.476;10.986;2023-01-29T01:05:15;8.07;;;5.65;;
12878;SDS011;20617;49.476;10.986;2023-01-29T01:07:21;8.40;;;6.18;;
12878;SDS011;20617;49.476;10.986;2023-01-29T01:09:26;7.30;;;5.88;;
12878;SDS011;20617;49.476;10.986;2023-01-29T01:11:43;9.40;;;5.97;;
12878;SDS011;20617;49.476;10.986;2023-01-29T01:13:51;8.18;;;6.65;;
12878;SDS011;20617;49.476;10.986;2023-01-29T01:15:57;8.40;;;6.03;;
12878;SDS011;20617;49.476;10.986;2023-01-29T01:18:03;7.35;;;6.00;;
12878;SDS011;20617;49.476;10.986;2023-01-29T01:20:09;9.43;;;5.55;;
12878;SDS011;20617;49.476;10.986;2023-01-29T01:22:15;6.85;;;5.57;;
12878;SDS011;20617;49.476;10.986;2023-01-29T01:24:20;10.10;;;6.15;;
12878;SDS011;20617;49.476;10.986;2023-01-29T01:26:25;6.32;;;5.22;;
12878;SDS011;20617;49.476;10.986;2023-01-29T01:28:30;6.50;;;5.35;;
12878;SDS011;20617;49.476;10.986;2023-01-29T01:30:41;8.45;;;5.57;;
12878;SDS011;20617;49.476;10.986;2023-01-29T01:32:46;8.10;;;6.05;;
12878;SDS011;20617;49.476;10.986;2023-01-29T01:34:51;6.40;;;5.20;;
12878;SDS011;20617;49.476;10.986;2023-01-29T01:36:56;8.10;;;5.75;;
12878;SDS011;20617;49.476;10.986;2023-01-29T01:39:01;6.85;;;4.70;;
12878;SDS011;20617;49.476;10.986;2023-01-29T01:41:06;8.30;;;6.15;;
12878;SDS011;20617;49.476;10.986;2023-01-29T01:43:11;7.10;;;5.53;;
12878;SDS011;20617;49.476;10.986;2023-01-29T01:47:26;8.27;;;5.75;;
12878;SDS011;20617;49.476;10.986;2023-01-29T01:49:36;8.10;;;5.60;;
12878;SDS011;20617;49.476;10.986;2023-01-29T01:51:42;8.63;;;6.35;;
12878;SDS011;20617;49.476;10.986;2023-01-29T01:53:50;8.68;;;6.50;;
12878;SDS011;20617;49.476;10.986;2023-01-29T01:55:59;10.02;;;6.32;;
12878;SDS011;20617;49.476;10.986;2023-01-29T01:58:11;7.25;;;5.78;;
12878;SDS011;20617;49.476;10.986;2023-01-29T02:00:19;8.00;;;6.07;;
12878;SDS011;20617;49.476;10.986;2023-01-29T02:02:28;8.32;;;6.05;;
12878;SDS011;20617;49.476;10.986;2023-01-29T02:04:45;7.50;;;5.97;;
12878;SDS011;20617;49.476;10.986;2023-01-29T02:07:05;9.50;;;5.43;;
12878;SDS011;20617;49.476;10.986;2023-01-29T02:09:28;8.30;;;5.60;;
12878;SDS011;20617;49.476;10.986;2023-01-29T02:11:38;8.38;;;5.93;;
12878;SDS011;20617;49.476;10.986;2023-01-29T02:13:43;7.93;;;5.80;;
12878;SDS011;20617;49.476;10.986;2023-01-29T02:15:59;8.57;;;5.82;;
12878;SDS011;20617;49.476;10.986;2023-01-29T02:18:06;7.95;;;5.45;;
12878;SDS011;20617;49.476;10.986;2023-01-29T02:20:14;9.48;;;5.63;;
12878;SDS011;20617;49.476;10.986;2023-01-29T02:28:12;8.38;;;6.60;;
12878;SDS011;20617;49.476;10.986;2023-01-29T02:30:23;9.55;;;6.15;;
12878;SDS011;20617;49.476;10.986;2023-01-29T02:32:39;6.97;;;5.77;;
12878;SDS011;20617;49.476;10.986;2023-01-29T02:34:59;8.30;;;5.72;;
12878;SDS011;20617;49.476;10.986;2023-01-29T02:37:33;12.50;;;6.45;;
12878;SDS011;20617;49.476;10.986;2023-01-29T02:39:43;9.07;;;6.55;;
12878;SDS011;20617;49.476;10.986;2023-01-29T02:41:59;6.97;;;5.22;;
12878;SDS011;20617;49.476;10.986;2023-01-29T02:44:17;7.20;;;6.05;;
12878;SDS011;20617;49.476;10.986;2023-01-29T02:46:27;7.82;;;5.82;;
12878;SDS011;20617;49.476;10.986;2023-01-29T02:48:39;7.63;;;5.55;;
12878;SDS011;20617;49.476;10.986;2023-01-29T02:50:48;7.55;;;6.35;;
12878;SDS011;20617;49.476;10.986;2023-01-29T02:53:01;8.68;;;6.75;;
12878;SDS011;20617;49.476;10.986;2023-01-29T02:55:11;8.93;;;6.32;;
12878;SDS011;20617;49.476;10.986;2023-01-29T02:57:24;8.65;;;6.22;;
12878;SDS011;20617;49.476;10.986;2023-01-29T02:59:36;9.90;;;6.20;;
12878;SDS011;20617;49.476;10.986;2023-01-29T03:01:46;7.82;;;5.53;;
12878;SDS011;20617;49.476;10.986;2023-01-29T03:03:53;7.18;;;5.80;;
12878;SDS011;20617;49.476;10.986;2023-01-29T03:06:03;8.38;;;5.68;;
12878;SDS011;20617;49.476;10.986;2023-01-29T03:08:14;6.32;;;5.57;;
12878;SDS011;20617;49.476;10.986;2023-01-29T03:10:25;8.18;;;6.05;;
12878;SDS011;20617;49.476;10.986;2023-01-29T03:12:34;8.63;;;6.05;;
12878;SDS011;20617;49.476;10.986;2023-01-29T03:14:46;9.02;;;6.07;;
12878;SDS011;20617;49.476;10.986;2023-01-29T03:17:07;6.72;;;5.60;;
12878;SDS011;20617;49.476;10.986;2023-01-29T03:19:13;8.07;;;6.00;;
12878;SDS011;20617;49.476;10.986;2023-01-29T03:21:24;8.10;;;6.28;;
12878;SDS011;20617;49.476;10.986;2023-01-29T03:23:48;8.95;;;6.47;;
12878;SDS011;20617;49.476;10.986;2023-01-29T03:26:06;8.38;;;5.95;;
12878;SDS011;20617;49.476;10.986;2023-01-29T03:28:23;9.73;;;6.65;;
12878;SDS011;20617;49.476;10.986;2023-01-29T03:30:47;7.22;;;5.97;;
12878;SDS011;20617;49.476;10.986;2023-01-29T03:33:28;10.27;;;5.80;;
12878;SDS011;20617;49.476;10.986;2023-01-29T03:35:39;8.63;;;6.50;;
12878;SDS011;20617;49.476;10.986;2023-01-29T03:37:50;9.55;;;6.68;;
12878;SDS011;20617;49.476;10.986;2023-01-29T03:39:57;9.23;;;6.35;;
12878;SDS011;20617;49.476;10.986;2023-01-29T03:42:03;9.20;;;6.32;;
12878;SDS011;20617;49.476;10.986;2023-01-29T03:44:20;9.50;;;6.65;;
12878;SDS011;20617;49.476;10.986;2023-01-29T03:48:46;8.10;;;6.80;;
12878;SDS011;20617;49.476;10.986;2023-01-29T03:51:00;8.98;;;6.50;;
12878;SDS011;20617;49.476;10.986;2023-01-29T03:53:13;9.00;;;6.72;;
12878;SDS011;20617;49.476;10.986;2023-01-29T03:55:28;11.45;;;7.05;;
12878;SDS011;20617;49.476;10.986;2023-01-29T03:57:39;8.55;;;6.43;;
12878;SDS011;20617;49.476;10.986;2023-01-29T03:59:51;8.75;;;7.05;;
12878;SDS011;20617;49.476;10.986;2023-01-29T04:02:20;11.90;;;6.90;;
12878;SDS011;20617;49.476;10.986;2023-01-29T04:04:31;8.95;;;7.15;;
12878;SDS011;20617;49.476;10.986;2023-01-29T04:06:39;8.88;;;6.50;;
12878;SDS011;20617;49.476;10.986;2023-01-29T04:08:49;9.85;;;6.63;;
12878;SDS011;20617;49.476;10.986;2023-01-29T04:11:00;8.52;;;6.70;;
12878;SDS011;20617;49.476;10.986;2023-01-29T04:13:11;7.43;;;6.30;;
12878;SDS011;20617;49.476;10.986;2023-01-29T04:15:19;8.90;;;6.82;;
12878;SDS011;20617;49.476;10.986;2023-01-29T04:17:30;9.32;;;6.38;;
12878;SDS011;20617;49.476;10.986;2023-01-29T04:19:49;8.27;;;6.63;;
12878;SDS011;20617;49.476;10.986;2023-01-29T04:24:04;9.55;;;6.68;;
12878;SDS011;20617;49.476;10.986;2023-01-29T04:28:55;8.20;;;6.10;;
12878;SDS011;20617;49.476;10.986;2023-01-29T04:31:11;8.68;;;6.65;;
12878;SDS011;20617;49.476;10.986;2023-01-29T04:33:22;8.57;;;5.72;;
12878;SDS011;20617;49.476;10.986;2023-01-29T04:35:41;6.70;;;5.38;;
12878;SDS011;20617;49.476;10.986;2023-01-29T04:37:56;8.95;;;6.25;;
12878;SDS011;20617;49.476;10.986;2023-01-29T04:40:13;7.82;;;6.30;;
12878;SDS011;20617;49.476;10.986;2023-01-29T04:42:24;8.27;;;6.75;;
12878;SDS011;20617;49.476;10.986;2023-01-29T04:44:35;8.30;;;5.82;;
12878;SDS011;20617;49.476;10.986;2023-01-29T04:46:45;11.00;;;7.13;;
12878;SDS011;20617;49.476;10.986;2023-01-29T04:48:59;10.00;;;6.93;;
12878;SDS011;20617;49.476;10.986;2023-01-29T04:51:14;7.15;;;6.25;;
12878;SDS011;20617;49.476;10.986;2023-01-29T04:53:27;8.30;;;6.40;;
12878;SDS011;20617;49.476;10.986;2023-01-29T04:55:41;7.85;;;6.57;;
12878;SDS011;20617;49.476;10.986;2023-01-29T04:57:51;8.45;;;6.45;;
12878;SDS011;20617;49.476;10.986;2023-01-29T05:00:04;8.05;;;6.75;;
12878;SDS011;20617;49.476;10.986;2023-01-29T05:02:13;7.68;;;6.63;;
12878;SDS011;20617;49.476;10.986;2023-01-29T05:04:21;9.40;;;6.38;;
12878;SDS011;20617;49.476;10.986;2023-01-29T05:06:27;9.00;;;6.57;;
12878;SDS011;20617;49.476;10.986;2023-01-29T05:08:35;10.07;;;7.03;;
12878;SDS011;20617;49.476;10.986;2023-01-29T05:10:42;8.40;;;6.90;;
12878;SDS011;20617;49.476;10.986;2023-01-29T05:12:50;8.38;;;7.00;;
12878;SDS011;20617;49.476;10.986;2023-01-29T05:14:59;9.68;;;6.65;;
12878;SDS011;20617;49.476;10.986;2023-01-29T05:17:08;9.98;;;7.57;;
12878;SDS011;20617;49.476;10.986;2023-01-29T05:19:17;7.90;;;7.03;;
12878;SDS011;20617;49.476;10.986;2023-01-29T05:21:25;11.93;;;8.07;;
12878;SDS011;20617;49.476;10.986;2023-01-29T05:23:31;9.88;;;7.47;;
12878;SDS011;20617;49.476;10.986;2023-01-29T05:25:36;10.20;;;7.22;;
12878;SDS011;20617;49.476;10.986;2023-01-29T05:29:58;7.90;;;6.18;;
12878;SDS011;20617;49.476;10.986;2023-01-29T05:32:03;11.48;;;7.65;;
12878;SDS011;20617;49.476;10.986;2023-01-29T05:34:08;9.13;;;7.82;;
12878;SDS011;20617;49.476;10.986;2023-01-29T05:36:15;7.43;;;6.63;;
12878;SDS011;20617;49.476;10.986;2023-01-29T05:38:20;10.38;;;8.18;;
12878;SDS011;20617;49.476;10.986;2023-01-29T05:40:26;9.50;;;7.18;;
12878;SDS011;20617;49.476;10.986;2023-01-29T05:42:31;7.63;;;6.82;;
12878;SDS011;20617;49.476;10.986;2023-01-29T05:46:40;8.77;;;7.78;;
12878;SDS011;20617;49.476;10.986;2023-01-29T05:48:50;10.48;;;7.60;;
12878;SDS011;20617;49.476;10.986;2023-01-29T05:50:58;9.30;;;7.47;;
12878;SDS011;20617;49.476;10.986;2023-01-29T05:53:06;10.60;;;7.70;;
12878;SDS011;20617;49.476;10.986;2023-01-29T05:55:10;9.32;;;7.95;;
12878;SDS011;20617;49.476;10.986;2023-01-29T05:57:15;8.77;;;7.72;;
12878;SDS011;20617;49.476;10.986;2023-01-29T05:59:20;11.35;;;7.28;;
12878;SDS011;20617;49.476;10.986;2023-01-29T06:01:25;10.10;;;7.68;;
12878;SDS011;20617;49.476;10.986;2023-01-29T06:03:30;12.13;;;7.70;;
12878;SDS011;20617;49.476;10.986;2023-01-29T06:05:36;9.52;;;7.65;;
12878;SDS011;20617;49.476;10.986;2023-01-29T06:07:41;9.70;;;7.10;;
12878;SDS011;20617;49.476;10.986;2023-01-29T06:09:51;8.30;;;6.97;;
12878;SDS011;20617;49.476;10.986;2023-01-29T06:11:56;9.00;;;6.95;;
12878;SDS011;20617;49.476;10.986;2023-01-29T06:14:01;9.25;;;6.22;;
12878;SDS011;20617;49.476;10.986;2023-01-29T06:16:07;7.35;;;6.38;;
12878;SDS011;20617;49.476;10.986;2023-01-29T06:18:15;7.97;;;6.72;;
12878;SDS011;20617;49.476;10.986;2023-01-29T06:20:19;9.65;;;7.05;;
12878;SDS011;20617;49.476;10.986;2023-01-29T06:22:24;8.50;;;6.88;;
12878;SDS011;20617;49.476;10.986;2023-01-29T06:24:29;7.63;;;6.80;;
12878;SDS011;20617;49.476;10.986;2023-01-29T06:26:36;8.90;;;7.45;;
12878;SDS011;20617;49.476;10.986;2023-01-29T06:28:41;8.00;;;6.50;;
12878;SDS011;20617;49.476;10.986;2023-01-29T06:30:50;10.52;;;7.65;;
12878;SDS011;20617;49.476;10.986;2023-01-29T06:32:55;10.00;;;7.55;;
12878;SDS011;20617;49.476;10.986;2023-01-29T06:35:02;12.27;;;8.00;;
12878;SDS011;20617;49.476;10.986;2023-01-29T06:37:07;8.63;;;6.78;;
12878;SDS011;20617;49.476;10.986;2023-01-29T06:39:12;10.98;;;7.45;;
12878;SDS011;20617;49.476;10.986;2023-01-29T06:41:17;9.75;;;7.82;;
12878;SDS011;20617;49.476;10.986;2023-01-29T06:43:28;13.90;;;8.00;;
12878;SDS011;20617;49.476;10.986;2023-01-29T06:45:33;8.75;;;7.25;;
12878;SDS011;20617;49.476;10.986;2023-01-29T06:47:38;8.15;;;6.80;;
12878;SDS011;20617;49.476;10.986;2023-01-29T06:49:43;9.77;;;7.47;;
12878;SDS011;20617;49.476;10.986;2023-01-29T06:51:48;9.35;;;6.68;;
12878;SDS011;20617;49.476;10.986;2023-01-29T06:53:53;9.63;;;7.60;;
12878;SDS011;20617;49.476;10.986;2023-01-29T06:55:58;8.35;;;6.88;;
12878;SDS011;20617;49.476;10.986;2023-01-29T06:58:05;7.55;;;6.32;;
12878;SDS011;20617;49.476;10.986;2023-01-29T07:02:22;7.65;;;5.85;;
12878;SDS011;20617;49.476;10.986;2023-01-29T07:04:27;7.72;;;6.30;;
12878;SDS011;20617;49.476;10.986;2023-01-29T07:06:32;6.15;;;5.55;;
12878;SDS011;20617;49.476;10.986;2023-01-29T07:08:37;8.85;;;6.25;;
12878;SDS011;20617;49.476;10.986;2023-01-29T07:10:42;7.65;;;6.45;;
12878;SDS011;20617;49.476;10.986;2023-01-29T07:12:47;8.75;;;7.55;;
12878;SDS011;20617;49.476;10.986;2023-01-29T07:14:52;7.97;;;6.35;;
12878;SDS011;20617;49.476;10.986;2023-01-29T07:16:59;9.02;;;7.35;;
12878;SDS011;20617;49.476;10.986;2023-01-29T07:19:04;8.85;;;7.20;;
12878;SDS011;20617;49.476;10.986;2023-01-29T07:21:09;9.52;;;7.25;;
12878;SDS011;20617;49.476;10.986;2023-01-29T07:23:14;10.13;;;7.22;;
12878;SDS011;20617;49.476;10.986;2023-01-29T07:25:19;8.48;;;7.55;;
12878;SDS011;20617;49.476;10.986;2023-01-29T07:29:29;8.90;;;6.50;;
12878;SDS011;20617;49.476;10.986;2023-01-29T07:31:34;9.75;;;7.47;;
12878;SDS011;20617;49.476;10.986;2023-01-29T07:35:46;7.53;;;6.72;;
12878;SDS011;20617;49.476;10.986;2023-01-29T07:37:51;8.50;;;6.95;;
12878;SDS011;20617;49.476;10.986;2023-01-29T07:39:56;10.00;;;7.53;;
12878;SDS011;20617;49.476;10.986;2023-01-29T07:44:06;8.27;;;6.45;;
12878;SDS011;20617;49.476;10.986;2023-01-29T07:46:11;7.65;;;6.50;;
12878;SDS011;20617;49.476;10.986;2023-01-29T07:48:16;7.68;;;5.82;;
12878;SDS011;20617;49.476;10.986;2023-01-29T07:50:24;8.55;;;7.03;;
12878;SDS011;20617;49.476;10.986;2023-01-29T07:52:30;7.03;;;6.10;;
12878;SDS011;20617;49.476;10.986;2023-01-29T07:54:36;8.93;;;7.22;;
12878;SDS011;20617;49.476;10.986;2023-01-29T07:56:41;8.07;;;6.75;;
12878;SDS011;20617;49.476;10.986;2023-01-29T07:58:45;8.30;;;6.53;;
12878;SDS011;20617;49.476;10.986;2023-01-29T08:00:50;9.55;;;7.93;;
12878;SDS011;20617;49.476;10.986;2023-01-29T08:03:00;10.60;;;8.10;;
12878;SDS011;20617;49.476;10.986;2023-01-29T08:05:07;9.55;;;8.10;;
12878;SDS011;20617;49.476;10.986;2023-01-29T08:07:15;8.85;;;7.47;;
12878;SDS011;20617;49.476;10.986;2023-01-29T08:09:20;9.35;;;7.32;;
12878;SDS011;20617;49.476;10.986;2023-01-29T08:11:25;9.63;;;7.60;;
12878;SDS011;20617;49.476;10.986;2023-01-29T08:13:29;11.55;;;7.50;;
12878;SDS011;20617;49.476;10.986;2023-01-29T08:15:36;8.95;;;7.75;;
12878;SDS011;20617;49.476;10.986;2023-01-29T08:17:44;10.43;;;7.63;;
12878;SDS011;20617;49.476;10.986;2023-01-29T08:19:58;9.52;;;7.45;;
12878;SDS011;20617;49.476;10.986;2023-01-29T08:22:03;9.45;;;8.43;;
12878;SDS011;20617;49.476;10.986;2023-01-29T08:24:11;10.52;;;8.90;;
12878;SDS011;20617;49.476;10.986;2023-01-29T08:26:16;12.95;;;9.55;;
12878;SDS011;20617;49.476;10.986;2023-01-29T08:28:23;11.57;;;8.85;;
12878;SDS011;20617;49.476;10.986;2023-01-29T08:30:29;12.13;;;8.48;;
12878;SDS011;20617;49.476;10.986;2023-01-29T08:32:35;11.70;;;8.80;;
12878;SDS011;20617;49.476;10.986;2023-01-29T08:36:46;12.63;;;9.93;;
12878;SDS011;20617;49.476;10.986;2023-01-29T08:38:51;10.38;;;9.15;;
12878;SDS011;20617;49.476;10.986;2023-01-29T08:40:59;11.13;;;9.93;;
12878;SDS011;20617;49.476;10.986;2023-01-29T08:43:05;9.27;;;7.90;;
12878;SDS011;20617;49.476;10.986;2023-01-29T08:45:11;11.02;;;9.18;;
12878;SDS011;20617;49.476;10.986;2023-01-29T08:47:16;12.50;;;10.98;;
12878;SDS011;20617;49.476;10.986;2023-01-29T08:49:21;10.27;;;9.27;;
12878;SDS011;20617;49.476;10.986;2023-01-29T08:51:26;11.02;;;8.68;;
12878;SDS011;20617;49.476;10.986;2023-01-29T08:53:31;13.40;;;8.23;;
12878;SDS011;20617;49.476;10.986;2023-01-29T08:55:36;10.50;;;8.85;;
12878;SDS011;20617;49.476;10.986;2023-01-29T08:57:44;8.52;;;7.60;;
12878;SDS011;20617;49.476;10.986;2023-01-29T08:59:50;16.38;;;11.18;;
12878;SDS011;20617;49.476;10.986;2023-01-29T09:01:55;9.60;;;8.35;;
12878;SDS011;20617;49.476;10.986;2023-01-29T09:04:00;12.20;;;9.32;;
12878;SDS011;20617;49.476;10.986;2023-01-29T09:06:05;13.70;;;9.70;;
12878;SDS011;20617;49.476;10.986;2023-01-29T09:08:11;12.63;;;9.38;;
12878;SDS011;20617;49.476;10.986;2023-01-29T09:10:17;15.10;;;11.85;;
12878;SDS011;20617;49.476;10.986;2023-01-29T09:12:21;18.17;;;12.57;;
12878;SDS011;20617;49.476;10.986;2023-01-29T09:14:29;14.57;;;11.77;;
12878;SDS011;20617;49.476;10.986;2023-01-29T09:16:34;14.60;;;10.20;;
12878;SDS011;20617;49.476;10.986;2023-01-29T09:18:38;13.43;;;9.82;;
12878;SDS011;20617;49.476;10.986;2023-01-29T09:20:43;11.43;;;9.35;;
12878;SDS011;20617;49.476;10.986;2023-01-29T09:22:48;14.23;;;10.70;;
12878;SDS011;20617;49.476;10.986;2023-01-29T09:24:56;17.58;;;10.82;;
12878;SDS011;20617;49.476;10.986;2023-01-29T09:27:01;15.85;;;11.60;;
12878;SDS011;20617;49.476;10.986;2023-01-29T09:29:07;12.85;;;9.43;;
12878;SDS011;20617;49.476;10.986;2023-01-29T09:31:16;9.65;;;8.32;;
12878;SDS011;20617;49.476;10.986;2023-01-29T09:33:21;10.30;;;8.63;;
12878;SDS011;20617;49.476;10.986;2023-01-29T09:35:26;10.07;;;8.77;;
12878;SDS011;20617;49.476;10.986;2023-01-29T09:37:31;11.52;;;9.07;;
12878;SDS011;20617;49.476;10.986;2023-01-29T09:41:44;12.75;;;10.00;;
12878;SDS011;20617;49.476;10.986;2023-01-29T09:43:57;11.48;;;8.68;;
12878;SDS011;20617;49.476;10.986;2023-01-29T09:46:06;15.13;;;9.18;;
12878;SDS011;20617;49.476;10.986;2023-01-29T09:48:25;11.50;;;9.00;;
12878;SDS011;20617;49.476;10.986;2023-01-29T09:50:35;12.43;;;9.80;;
12878;SDS011;20617;49.476;10.986;2023-01-29T09:52:44;12.45;;;8.98;;
12878;SDS011;20617;49.476;10.986;2023-01-29T09:54:55;11.43;;;9.10;;
12878;SDS011;20617;49.476;10.986;2023-01-29T09:57:03;10.85;;;8.73;;
12878;SDS011;20617;49.476;10.986;2023-01-29T09:59:20;10.68;;;8.82;;
12878;SDS011;20617;49.476;10.986;2023-01-29T10:01:30;9.65;;;7.65;;
12878;SDS011;20617;49.476;10.986;2023-01-29T10:03:43;10.60;;;8.07;;
12878;SDS011;20617;49.476;10.986;2023-01-29T10:06:20;11.32;;;8.00;;
12878;SDS011;20617;49.476;10.986;2023-01-29T10:08:35;9.25;;;7.22;;
12878;SDS011;20617;49.476;10.986;2023-01-29T10:10:53;9.50;;;7.97;;
12878;SDS011;20617;49.476;10.986;2023-01-29T10:13:06;10.13;;;8.65;;
12878;SDS011;20617;49.476;10.986;2023-01-29T10:15:23;9.30;;;8.30;;
12878;SDS011;20617;49.476;10.986;2023-01-29T10:17:48;10.35;;;6.60;;
12878;SDS011;20617;49.476;10.986;2023-01-29T10:20:04;9.90;;;7.90;;
12878;SDS011;20617;49.476;10.986;2023-01-29T10:22:36;12.00;;;8.23;;
12878;SDS011;20617;49.476;10.986;2023-01-29T10:26:56;12.15;;;8.73;;
12878;SDS011;20617;49.476;10.986;2023-01-29T10:29:04;11.38;;;9.60;;
12878;SDS011;20617;49.476;10.986;2023-01-29T10:31:14;10.93;;;9.00;;
12878;SDS011;20617;49.476;10.986;2023-01-29T10:33:29;13.20;;;9.15;;
12878;SDS011;20617;49.476;10.986;2023-01-29T10:36:01;12.43;;;9.23;;
12878;SDS011;20617;49.476;10.986;2023-01-29T10:38:13;14.38;;;11.20;;
12878;SDS011;20617;49.476;10.986;2023-01-29T10:40:26;12.65;;;9.77;;
12878;SDS011;20617;49.476;10.986;2023-01-29T10:42:41;11.30;;;9.05;;
12878;SDS011;20617;49.476;10.986;2023-01-29T10:44:59;13.20;;;10.73;;
12878;SDS011;20617;49.476;10.986;2023-01-29T10:47:30;10.77;;;8.98;;
12878;SDS011;20617;49.476;10.986;2023-01-29T10:49:54;9.82;;;8.00;;
12878;SDS011;20617;49.476;10.986;2023-01-29T10:52:26;12.10;;;10.27;;
12878;SDS011;20617;49.476;10.986;2023-01-29T10:54:53;13.05;;;10.00;;
12878;SDS011;20617;49.476;10.986;2023-01-29T10:57:09;10.93;;;8.95;;
12878;SDS011;20617;49.476;10.986;2023-01-29T10:59:26;11.60;;;10.40;;
12878;SDS011;20617;49.476;10.986;2023-01-29T11:01:42;11.93;;;9.70;;
12878;SDS011;20617;49.476;10.986;2023-01-29T11:03:51;12.70;;;10.52;;
12878;SDS011;20617;49.476;10.986;2023-01-29T11:06:06;13.57;;;10.75;;
12878;SDS011;20617;49.476;10.986;2023-01-29T11:08:17;12.13;;;10.30;;
12878;SDS011;20617;49.476;10.986;2023-01-29T11:10:24;11.27;;;10.10;;
12878;SDS011;20617;49.476;10.986;2023-01-29T11:12:30;13.70;;;10.20;;
12878;SDS011;20617;49.476;10.986;2023-01-29T11:14:38;11.82;;;10.25;;
12878;SDS011;20617;49.476;10.986;2023-01-29T11:16:47;13.82;;;9.80;;
12878;SDS011;20617;49.476;10.986;2023-01-29T11:18:54;12.38;;;10.32;;
12878;SDS011;20617;49.476;10.986;2023-01-29T11:21:02;13.50;;;10.80;;
12878;SDS011;20617;49.476;10.986;2023-01-29T11:23:22;17.13;;;13.32;;
12878;SDS011;20617;49.476;10.986;2023-01-29T11:25:30;16.80;;;13.70;;
12878;SDS011;20617;49.476;10.986;2023-01-29T11:27:38;17.42;;;13.60;;
12878;SDS011;20617;49.476;10.986;2023-01-29T11:29:47;12.93;;;10.40;;
12878;SDS011;20617;49.476;10.986;2023-01-29T11:31:53;11.88;;;9.50;;
12878;SDS011;20617;49.476;10.986;2023-01-29T11:34:00;12.82;;;10.30;;
12878;SDS011;20617;49.476;10.986;2023-01-29T11:36:26;13.30;;;11.23;;
12878;SDS011;20617;49.476;10.986;2023-01-29T11:38:36;11.02;;;8.70;;
12878;SDS011;20617;49.476;10.986;2023-01-29T11:40:41;11.35;;;10.15;;
12878;SDS011;20617;49.476;10.986;2023-01-29T11:42:47;13.38;;;10.43;;
12878;SDS011;20617;49.476;10.986;2023-01-29T11:44:54;48.35;;;29.08;;
12878;SDS011;20617;49.476;10.986;2023-01-29T11:47:08;19.40;;;14.57;;
12878;SDS011;20617;49.476;10.986;2023-01-29T11:49:21;12.35;;;10.25;;
12878;SDS011;20617;49.476;10.986;2023-01-29T11:51:35;17.50;;;13.60;;
12878;SDS011;20617;49.476;10.986;2023-01-29T11:53:44;14.90;;;12.07;;
12878;SDS011;20617;49.476;10.986;2023-01-29T11:55:54;14.55;;;11.27;;
12878;SDS011;20617;49.476;10.986;2023-01-29T11:58:00;14.88;;;11.85;;
12878;SDS011;20617;49.476;10.986;2023-01-29T12:00:15;13.35;;;10.57;;
12878;SDS011;20617;49.476;10.986;2023-01-29T12:02:25;12.15;;;9.27;;
12878;SDS011;20617;49.476;10.986;2023-01-29T12:04:42;10.60;;;8.95;;
12878;SDS011;20617;49.476;10.986;2023-01-29T12:06:50;10.55;;;9.20;;
12878;SDS011;20617;49.476;10.986;2023-01-29T12:08:58;11.35;;;9.02;;
12878;SDS011;20617;49.476;10.986;2023-01-29T12:11:06;10.15;;;8.35;;
12878;SDS011;20617;49.476;10.986;2023-01-29T12:13:20;11.43;;;9.23;;
12878;SDS011;20617;49.476;10.986;2023-01-29T12:15:29;10.85;;;9.45;;
12878;SDS011;20617;49.476;10.986;2023-01-29T12:17:35;9.65;;;8.23;;
12878;SDS011;20617;49.476;10.986;2023-01-29T12:19:43;9.90;;;8.40;;
12878;SDS011;20617;49.476;10.986;2023-01-29T12:21:59;10.68;;;7.97;;
12878;SDS011;20617;49.476;10.986;2023-01-29T12:24:10;10.52;;;8.93;;
12878;SDS011;20617;49.476;10.986;2023-01-29T12:26:24;10.68;;;8.60;;
12878;SDS011;20617;49.476;10.986;2023-01-29T12:28:41;10.68;;;9.52;;
12878;SDS011;20617;49.476;10.986;2023-01-29T12:30:54;11.52;;;9.05;;
12878;SDS011;20617;49.476;10.986;2023-01-29T12:33:13;10.43;;;9.13;;
12878;SDS011;20617;49.476;10.986;2023-01-29T12:35:28;11.88;;;9.57;;
12878;SDS011;20617;49.476;10.986;2023-01-29T12:37:39;9.70;;;8.00;;
12878;SDS011;20617;49.476;10.986;2023-01-29T12:39:52;10.75;;;8.02;;
12878;SDS011;20617;49.476;10.986;2023-01-29T12:42:00;9.82;;;8.10;;
12878;SDS011;20617;49.476;10.986;2023-01-29T12:44:10;8.70;;;7.80;;
12878;SDS011;20617;49.476;10.986;2023-01-29T12:46:20;9.38;;;7.78;;
12878;SDS011;20617;49.476;10.986;2023-01-29T12:48:29;8.75;;;7.50;;
12878;SDS011;20617;49.476;10.986;2023-01-29T12:50:36;9.20;;;8.02;;
12878;SDS011;20617;49.476;10.986;2023-01-29T12:52:45;12.52;;;8.93;;
12878;SDS011;20617;49.476;10.986;2023-01-29T12:54:54;12.43;;;9.02;;
12878;SDS011;20617;49.476;10.986;2023-01-29T12:57:02;9.40;;;7.82;;
12878;SDS011;20617;49.476;10.986;2023-01-29T12:59:11;8.82;;;7.40;;
12878;SDS011;20617;49.476;10.986;2023-01-29T13:01:25;14.15;;;10.02;;
12878;SDS011;20617;49.476;10.986;2023-01-29T13:03:33;12.02;;;9.38;;
12878;SDS011;20617;49.476;10.986;2023-01-29T13:08:00;13.38;;;9.65;;
12878;SDS011;20617;49.476;10.986;2023-01-29T13:10:11;10.63;;;8.48;;
12878;SDS011;20617;49.476;10.986;2023-01-29T13:12:20;8.70;;;7.32;;
12878;SDS011;20617;49.476;10.986;2023-01-29T13:14:29;9.90;;;7.47;;
12878;SDS011;20617;49.476;10.986;2023-01-29T13:16:41;11.57;;;8.75;;
12878;SDS011;20617;49.476;10.986;2023-01-29T13:18:49;8.27;;;7.00;;
12878;SDS011;20617;49.476;10.986;2023-01-29T13:20:58;8.50;;;7.07;;